createdAt,value
2023-02-03T00:02:55.777Z,16.73
2023-02-03T00:06:19.527Z,19.00
2023-02-03T00:09:43.456Z,16.80
2023-02-03T00:13:10.340Z,19.90
2023-02-03T00:16:34.817Z,17.33
2023-02-03T00:20:01.817Z,17.10
2023-02-03T00:23:25.856Z,17.10
2023-02-03T00:26:49.465Z,18.03
2023-02-03T00:30:14.259Z,18.33
2023-02-03T00:33:39.008Z,20.57
2023-02-03T00:37:03.943Z,19.97
2023-02-03T00:40:29.843Z,21.80
2023-02-03T00:43:55.824Z,20.20
2023-02-03T00:47:19.458Z,22.40
2023-02-03T00:50:43.445Z,21.43
2023-02-03T00:54:11.313Z,21.00
2023-02-03T00:57:35.483Z,19.57
2023-02-03T01:00:59.751Z,19.80
2023-02-03T01:04:23.416Z,22.73
2023-02-03T01:07:47.498Z,20.40
2023-02-03T01:11:14.965Z,17.50
2023-02-03T01:14:39.484Z,20.67
2023-02-03T01:18:03.484Z,19.43
2023-02-03T01:21:28.058Z,19.80
2023-02-03T01:24:52.362Z,18.60
2023-02-03T01:28:17.964Z,18.10
2023-02-03T01:31:43.299Z,17.93
2023-02-03T01:35:08.248Z,20.87
2023-02-03T01:38:34.801Z,19.43
2023-02-03T01:41:58.600Z,18.80
2023-02-03T01:45:29.033Z,18.93
2023-02-03T01:48:59.451Z,18.43
2023-02-03T01:52:23.834Z,17.57
2023-02-03T01:55:50.891Z,16.63
2023-02-03T01:59:18.496Z,18.33
2023-02-03T02:02:47.834Z,18.90
2023-02-03T02:06:15.031Z,18.13
2023-02-03T02:09:38.716Z,16.60
2023-02-03T02:13:04.508Z,17.90
2023-02-03T02:16:41.054Z,17.23
2023-02-03T02:20:41.319Z,16.43
2023-02-03T02:24:48.150Z,14.90
2023-02-03T02:28:43.619Z,17.57
2023-02-03T02:32:20.649Z,15.20
2023-02-03T02:35:54.016Z,15.23
2023-02-03T02:39:24.748Z,14.63
2023-02-03T02:43:01.095Z,14.73
2023-02-03T02:46:33.113Z,13.90
2023-02-03T02:50:04.537Z,14.40
2023-02-03T02:53:35.803Z,13.93
2023-02-03T02:57:03.878Z,14.37
2023-02-03T03:00:31.510Z,14.53
2023-02-03T03:03:55.246Z,14.47
2023-02-03T03:07:26.610Z,13.90
2023-02-03T03:10:51.536Z,13.00
2023-02-03T03:14:18.865Z,13.83
2023-02-03T03:17:46.667Z,14.23
2023-02-03T03:21:19.985Z,14.83
2023-02-03T03:24:48.821Z,13.27
2023-02-03T03:28:19.148Z,13.20
2023-02-03T03:31:44.247Z,12.73
2023-02-03T03:35:09.353Z,12.20
2023-02-03T03:38:38.864Z,12.97
2023-02-03T03:42:10.402Z,12.17
2023-02-03T03:45:42.950Z,11.43
2023-02-03T03:49:09.457Z,9.77
2023-02-03T03:52:36.834Z,11.00
2023-02-03T03:56:03.205Z,12.13
2023-02-03T03:59:35.046Z,11.50
2023-02-03T04:03:03.968Z,10.87
2023-02-03T04:06:27.873Z,11.20
2023-02-03T04:09:53.989Z,10.83
2023-02-03T04:13:20.549Z,9.70
2023-02-03T04:16:47.858Z,9.97
2023-02-03T04:20:13.126Z,9.60
2023-02-03T04:23:36.718Z,10.30
2023-02-03T04:27:00.711Z,11.80
2023-02-03T04:30:25.119Z,12.10
2023-02-03T04:33:50.119Z,10.97
2023-02-03T04:37:13.770Z,8.93
2023-02-03T04:40:37.450Z,10.07
2023-02-03T04:44:01.774Z,9.30
2023-02-03T04:47:25.856Z,8.30
2023-02-03T04:50:51.155Z,8.77
2023-02-03T04:54:16.363Z,9.40
2023-02-03T04:57:40.726Z,10.40
2023-02-03T05:01:08.822Z,8.00
2023-02-03T05:04:32.814Z,9.03
2023-02-03T05:07:58.125Z,8.70
2023-02-03T05:11:21.745Z,8.93
2023-02-03T05:14:45.735Z,9.30
2023-02-03T05:18:09.752Z,7.90
2023-02-03T05:21:33.773Z,7.50
2023-02-03T05:24:59.179Z,7.70
2023-02-03T05:28:22.829Z,8.70
2023-02-03T05:31:46.441Z,8.00
2023-02-03T05:35:10.812Z,7.20
2023-02-03T05:38:34.724Z,7.63
2023-02-03T05:42:00.157Z,8.20
2023-02-03T05:45:23.795Z,7.50
2023-02-03T05:48:47.860Z,7.80
2023-02-03T05:52:11.779Z,8.33
2023-02-03T05:55:36.204Z,7.30
2023-02-03T05:59:02.146Z,7.70
2023-02-03T06:02:25.856Z,8.27
2023-02-03T06:05:50.779Z,6.30
2023-02-03T06:09:14.829Z,6.23
2023-02-03T06:12:40.055Z,7.10
2023-02-03T06:16:10.162Z,8.43
2023-02-03T06:19:33.777Z,7.10
2023-02-03T06:22:57.915Z,8.03
2023-02-03T06:26:21.818Z,7.87
2023-02-03T06:29:45.873Z,8.43
2023-02-03T06:33:12.687Z,8.90
2023-02-03T06:36:36.202Z,8.70
2023-02-03T06:39:59.824Z,10.00
2023-02-03T06:43:23.480Z,9.17
2023-02-03T06:46:47.885Z,10.70
2023-02-03T06:50:15.645Z,9.90
2023-02-03T06:53:39.210Z,9.33
2023-02-03T06:57:03.571Z,8.63
2023-02-03T07:00:28.236Z,9.80
2023-02-03T07:03:52.946Z,8.63
2023-02-03T07:07:18.539Z,9.33
2023-02-03T07:10:42.901Z,9.53
2023-02-03T07:14:06.937Z,8.83
2023-02-03T07:17:33.567Z,9.33
2023-02-03T07:20:57.085Z,8.50
2023-02-03T07:24:22.375Z,8.77
2023-02-03T07:27:45.974Z,9.80
2023-02-03T07:31:11.069Z,9.33
2023-02-03T07:34:35.157Z,7.70
2023-02-03T07:37:58.644Z,8.77
2023-02-03T07:41:24.295Z,9.63
2023-02-03T07:44:47.923Z,8.43
2023-02-03T07:48:14.384Z,7.97
2023-02-03T07:51:41.810Z,8.90
2023-02-03T07:55:06.871Z,9.03
2023-02-03T07:58:32.774Z,9.20
2023-02-03T08:01:58.276Z,8.73
2023-02-03T08:05:23.698Z,10.63
2023-02-03T08:08:47.271Z,9.00
2023-02-03T08:12:10.867Z,8.73
2023-02-03T08:15:35.878Z,7.97
2023-02-03T08:18:59.506Z,9.77
2023-02-03T08:22:23.253Z,9.40
2023-02-03T08:25:46.879Z,8.63
2023-02-03T08:29:11.510Z,9.17
2023-02-03T08:32:36.779Z,9.03
2023-02-03T08:36:01.079Z,9.80
2023-02-03T08:39:25.252Z,10.73
2023-02-03T08:42:48.799Z,8.60
2023-02-03T08:46:13.914Z,9.13
2023-02-03T08:49:39.625Z,8.50
2023-02-03T08:53:03.469Z,7.63
2023-02-03T08:56:27.528Z,10.50
2023-02-03T08:59:51.166Z,10.97
2023-02-03T09:03:15.031Z,11.40
2023-02-03T09:06:40.746Z,9.73
2023-02-03T09:10:04.906Z,10.33
2023-02-03T09:13:28.842Z,10.80
2023-02-03T09:16:52.467Z,9.30
2023-02-03T09:20:16.296Z,10.30
2023-02-03T09:23:41.584Z,9.93
2023-02-03T09:27:05.316Z,10.10
2023-02-03T09:30:29.201Z,10.50
2023-02-03T09:33:52.889Z,9.37
2023-02-03T09:37:16.623Z,10.37
2023-02-03T09:40:41.562Z,10.17
2023-02-03T09:44:10.588Z,9.60
2023-02-03T09:47:36.859Z,8.80
2023-02-03T09:51:00.479Z,8.93
2023-02-03T09:54:28.909Z,9.27
2023-02-03T09:57:59.311Z,10.30
2023-02-03T10:01:27.399Z,8.10
2023-02-03T10:04:58.950Z,9.47
2023-02-03T10:08:35.046Z,10.20
2023-02-03T10:12:19.617Z,8.30
2023-02-03T10:15:57.779Z,8.07
2023-02-03T10:19:26.745Z,8.10
2023-02-03T10:22:54.175Z,9.17
2023-02-03T10:26:21.701Z,7.20
2023-02-03T10:29:45.881Z,7.40
2023-02-03T10:33:13.869Z,7.10
2023-02-03T10:36:54.012Z,7.67
2023-02-03T10:40:18.238Z,7.50
2023-02-03T10:43:52.582Z,6.77
2023-02-03T10:47:28.303Z,6.83
2023-02-03T10:50:54.491Z,7.97
2023-02-03T10:54:33.547Z,7.00
2023-02-03T10:57:58.688Z,6.73
2023-02-03T11:01:25.676Z,6.13
2023-02-03T11:04:49.327Z,6.53
2023-02-03T11:08:17.854Z,5.70
2023-02-03T11:11:42.152Z,6.20
2023-02-03T11:15:08.640Z,5.10
2023-02-03T11:18:40.039Z,4.27
2023-02-03T11:22:03.872Z,4.17
2023-02-03T11:25:33.243Z,3.73
2023-02-03T11:29:00.632Z,4.30
2023-02-03T11:32:28.300Z,4.20
2023-02-03T11:35:58.076Z,4.50
2023-02-03T11:39:27.494Z,3.87
2023-02-03T11:43:07.196Z,4.73
2023-02-03T11:46:30.834Z,4.30
2023-02-03T11:50:14.219Z,3.70
2023-02-03T11:53:56.619Z,5.50
2023-02-03T11:57:30.409Z,5.40
2023-02-03T12:01:03.184Z,4.63
2023-02-03T12:04:50.424Z,4.73
2023-02-03T12:08:27.309Z,4.17
2023-02-03T12:12:14.191Z,3.00
2023-02-03T12:16:06.430Z,4.53
2023-02-03T12:19:39.081Z,5.17
2023-02-03T12:23:13.067Z,4.70
2023-02-03T12:26:42.953Z,4.60
2023-02-03T12:30:13.456Z,5.10
2023-02-03T12:33:44.575Z,5.33
2023-02-03T12:37:16.029Z,4.97
2023-02-03T12:40:43.970Z,5.10
2023-02-03T12:44:16.463Z,4.10
2023-02-03T12:47:44.896Z,5.30
2023-02-03T12:51:15.465Z,5.77
2023-02-03T12:54:46.482Z,4.97
2023-02-03T12:58:14.745Z,4.17
2023-02-03T13:01:43.319Z,5.67
2023-02-03T13:05:16.017Z,6.53
2023-02-03T13:08:47.417Z,5.90
2023-02-03T13:12:14.979Z,6.57
2023-02-03T13:15:41.444Z,5.83
2023-02-03T13:19:09.030Z,4.80
2023-02-03T13:22:33.748Z,4.80
2023-02-03T13:26:24.560Z,6.60
2023-02-03T13:30:09.724Z,5.40
2023-02-03T13:34:07.614Z,5.60
2023-02-03T13:37:49.670Z,5.90
2023-02-03T13:41:22.293Z,6.67
2023-02-03T13:44:51.401Z,6.23
2023-02-03T13:48:19.136Z,6.33
2023-02-03T13:51:46.576Z,4.73
2023-02-03T13:55:29.661Z,6.23
2023-02-03T13:59:05.043Z,6.43
2023-02-03T14:02:45.739Z,8.93
2023-02-03T14:06:27.117Z,5.20
2023-02-03T14:10:21.316Z,7.20
2023-02-03T14:13:45.035Z,6.27
2023-02-03T14:18:03.746Z,5.47
2023-02-03T14:21:31.063Z,6.93
2023-02-03T14:24:56.995Z,7.90
2023-02-03T14:28:23.758Z,7.40
2023-02-03T14:31:58.844Z,6.70
2023-02-03T14:35:30.639Z,7.57
2023-02-03T14:38:55.011Z,7.80
2023-02-03T14:42:25.770Z,7.90
2023-02-03T14:46:08.064Z,6.37
2023-02-03T14:49:45.749Z,8.40
2023-02-03T14:53:24.402Z,5.73
2023-02-03T14:57:14.277Z,6.80
2023-02-03T15:00:37.850Z,8.10
2023-02-03T15:04:23.203Z,7.73
2023-02-03T15:07:49.231Z,6.50
2023-02-03T15:11:23.757Z,8.33
2023-02-03T15:14:47.269Z,8.20
2023-02-03T15:18:23.123Z,7.87
2023-02-03T15:21:47.420Z,7.77
2023-02-03T15:25:17.974Z,8.50
2023-02-03T15:28:43.044Z,8.10
2023-02-03T15:32:11.051Z,9.30
2023-02-03T15:35:37.230Z,7.37
2023-02-03T15:39:08.574Z,7.13
2023-02-03T15:42:38.478Z,7.47
2023-02-03T15:46:07.549Z,7.57
2023-02-03T15:49:37.709Z,7.83
2023-02-03T15:53:09.236Z,6.97
2023-02-03T15:56:38.603Z,8.10
2023-02-03T16:00:04.643Z,6.73
2023-02-03T16:03:40.746Z,9.27
2023-02-03T16:07:04.575Z,7.70
2023-02-03T16:10:31.840Z,7.87
2023-02-03T16:13:56.513Z,9.30
2023-02-03T16:17:28.741Z,8.37
2023-02-03T16:20:53.836Z,9.03
2023-02-03T16:24:37.425Z,8.50
2023-02-03T16:28:20.262Z,7.73
2023-02-03T16:32:04.722Z,9.33
2023-02-03T16:35:45.674Z,7.90
2023-02-03T16:39:31.127Z,6.30
2023-02-03T16:43:12.096Z,8.27
2023-02-03T16:46:53.137Z,7.93
2023-02-03T16:50:38.977Z,8.70
2023-02-03T16:54:02.990Z,8.80
2023-02-03T16:57:27.868Z,9.20
2023-02-03T17:00:53.382Z,11.53
2023-02-03T17:04:17.169Z,8.50
2023-02-03T17:07:40.647Z,9.60
2023-02-03T17:11:05.837Z,8.60
2023-02-03T17:14:31.187Z,8.97
2023-02-03T17:17:54.967Z,8.50
2023-02-03T17:21:20.996Z,9.13
2023-02-03T17:24:45.454Z,8.70
2023-02-03T17:28:10.237Z,9.87
2023-02-03T17:31:35.180Z,8.13
2023-02-03T17:34:58.691Z,9.03
2023-02-03T17:38:22.198Z,8.50
2023-02-03T17:56:28.428Z,8.60
2023-02-03T17:59:55.111Z,9.63
2023-02-03T18:03:18.648Z,9.53
2023-02-03T18:06:43.509Z,8.70
2023-02-03T18:10:08.728Z,8.73
2023-02-03T18:13:33.540Z,9.90
2023-02-03T18:16:57.143Z,8.37
2023-02-03T18:20:20.687Z,8.10
2023-02-03T18:23:45.559Z,9.77
2023-02-03T18:27:09.042Z,8.43
2023-02-03T18:30:33.053Z,8.97
2023-02-03T18:33:56.968Z,9.10
2023-02-03T18:37:20.458Z,10.20
2023-02-03T18:40:45.318Z,8.63
2023-02-03T18:44:08.930Z,7.00
2023-02-03T18:47:32.481Z,8.50
2023-02-03T18:50:56.089Z,6.80
2023-02-03T18:54:19.637Z,7.13
2023-02-03T18:57:44.600Z,7.90
2023-02-03T19:01:08.400Z,7.67
2023-02-03T19:04:32.180Z,6.57
2023-02-03T19:07:55.639Z,7.53
2023-02-03T19:11:20.994Z,6.93
2023-02-03T19:14:45.948Z,7.27
2023-02-03T19:18:09.947Z,6.83
2023-02-03T19:21:33.402Z,6.83
2023-02-03T19:24:57.026Z,9.10
2023-02-03T19:28:30.486Z,8.67
2023-02-03T19:31:56.064Z,7.63
2023-02-03T19:35:19.642Z,6.63
2023-02-03T19:38:43.951Z,6.17
2023-02-03T19:42:07.521Z,11.80
2023-02-03T19:45:31.055Z,7.50
2023-02-03T19:48:55.951Z,5.23
2023-02-03T19:52:19.466Z,7.37
2023-02-03T19:55:43.571Z,5.67
2023-02-03T19:59:08.171Z,7.00
2023-02-03T20:02:31.798Z,7.20
2023-02-03T20:05:56.775Z,6.53
2023-02-03T20:09:20.448Z,13.33
2023-02-03T20:12:44.159Z,11.80
2023-02-03T20:16:07.975Z,7.07
2023-02-03T20:19:31.696Z,7.67
2023-02-03T20:22:56.623Z,5.63
2023-02-03T20:26:20.322Z,7.10
2023-02-03T20:29:43.832Z,5.90
2023-02-03T20:33:07.412Z,8.17
2023-02-03T20:36:31.332Z,7.27
2023-02-03T20:39:56.326Z,6.00
2023-02-03T20:43:21.796Z,5.77
2023-02-03T20:46:45.428Z,8.87
2023-02-03T20:50:16.338Z,6.40
2023-02-03T20:53:41.736Z,6.67
2023-02-03T20:57:12.948Z,7.60
2023-02-03T21:00:36.590Z,7.03
2023-02-03T21:04:16.628Z,7.00
2023-02-03T21:07:40.161Z,7.40
2023-02-03T21:11:10.350Z,7.60
2023-02-03T21:14:39.827Z,8.20
2023-02-03T21:18:03.389Z,7.40
2023-02-03T21:21:34.087Z,8.60
2023-02-03T21:24:59.329Z,7.50
2023-02-03T21:28:26.159Z,8.47
2023-02-03T21:31:51.103Z,7.37
2023-02-03T21:35:24.814Z,8.70
2023-02-03T21:38:51.181Z,6.60
2023-02-03T21:42:41.918Z,7.27
2023-02-03T21:46:05.746Z,8.97
2023-02-03T21:49:30.829Z,7.97
2023-02-03T21:52:54.618Z,8.50
2023-02-03T21:56:20.908Z,7.73
2023-02-03T21:59:46.832Z,8.47
2023-02-03T22:03:20.098Z,9.80
2023-02-03T22:06:47.013Z,7.33
2023-02-03T22:10:10.961Z,7.90
2023-02-03T22:13:35.022Z,8.50
2023-02-03T22:16:58.600Z,8.30
2023-02-03T22:20:22.171Z,8.90
2023-02-03T22:23:47.772Z,8.73
2023-02-03T22:27:11.310Z,9.73
2023-02-03T22:30:35.237Z,6.97
2023-02-03T22:33:58.907Z,10.37
2023-02-03T22:37:22.585Z,7.20
2023-02-03T22:40:50.889Z,6.93
2023-02-03T22:44:16.200Z,6.70
2023-02-03T22:47:40.149Z,5.93
2023-02-03T22:51:04.884Z,6.77
2023-02-03T22:54:28.982Z,8.23
2023-02-03T22:57:57.317Z,8.50
2023-02-03T23:01:21.944Z,9.87
2023-02-03T23:04:45.673Z,8.17
2023-02-03T23:08:10.597Z,7.80
2023-02-03T23:11:35.000Z,8.83
2023-02-03T23:15:02.470Z,8.80
2023-02-03T23:18:27.121Z,8.60
2023-02-03T23:21:51.274Z,7.23
2023-02-03T23:25:16.318Z,7.87
2023-02-03T23:28:39.918Z,8.17
2023-02-03T23:32:05.535Z,8.47
2023-02-03T23:35:47.483Z,5.83
2023-02-03T23:39:12.110Z,6.10
2023-02-03T23:42:36.120Z,6.43
2023-02-03T23:46:00.023Z,6.27
2023-02-03T23:49:25.424Z,5.37
2023-02-03T23:52:52.262Z,6.00
2023-02-03T23:56:16.155Z,5.30
2023-02-03T23:59:40.056Z,7.37
